sensor_id;sensor_type;location;lat;lon;timestamp;pressure;altitude;pressure_sealevel;temperature;humidity
56070;BME280;41944;52.078;-0.058;2023-07-08T00:00:39;101119.85;;;21.12;63.72
56070;BME280;41944;52.078;-0.058;2023-07-08T00:03:06;101118.68;;;21.13;63.90
56070;BME280;41944;52.078;-0.058;2023-07-08T00:05:33;101120.27;;;21.14;64.01
56070;BME280;41944;52.078;-0.058;2023-07-08T00:08:01;101115.99;;;21.11;64.29
56070;BME280;41944;52.078;-0.058;2023-07-08T00:10:29;101113.31;;;21.21;64.08
56070;BME280;41944;52.078;-0.058;2023-07-08T00:12:57;101117.43;;;21.15;64.43
56070;BME280;41944;52.078;-0.058;2023-07-08T00:15:26;101110.71;;;21.09;65.01
56070;BME280;41944;52.078;-0.058;2023-07-08T00:17:54;101104.34;;;21.12;65.09
56070;BME280;41944;52.078;-0.058;2023-07-08T00:20:23;101103.16;;;21.13;65.29
56070;BME280;41944;52.078;-0.058;2023-07-08T00:22:53;101101.60;;;21.02;65.83
56070;BME280;41944;52.078;-0.058;2023-07-08T00:25:19;101097.84;;;20.93;66.42
56070;BME280;41944;52.078;-0.058;2023-07-08T00:27:46;101096.81;;;20.88;66.70
56070;BME280;41944;52.078;-0.058;2023-07-08T00:30:20;101094.43;;;20.91;66.74
56070;BME280;41944;52.078;-0.058;2023-07-08T00:32:48;101096.07;;;20.72;67.45
56070;BME280;41944;52.078;-0.058;2023-07-08T00:35:16;101091.85;;;20.60;68.11
56070;BME280;41944;52.078;-0.058;2023-07-08T00:37:42;101092.19;;;20.57;68.37
56070;BME280;41944;52.078;-0.058;2023-07-08T00:40:15;101089.24;;;20.49;68.82
56070;BME280;41944;52.078;-0.058;2023-07-08T00:42:44;101091.19;;;20.49;68.93
56070;BME280;41944;52.078;-0.058;2023-07-08T00:45:19;101091.96;;;20.53;68.88
56070;BME280;41944;52.078;-0.058;2023-07-08T00:47:49;101094.52;;;20.51;69.12
56070;BME280;41944;52.078;-0.058;2023-07-08T00:50:18;101097.66;;;20.49;69.21
56070;BME280;41944;52.078;-0.058;2023-07-08T00:52:45;101096.80;;;20.47;69.38
56070;BME280;41944;52.078;-0.058;2023-07-08T00:55:13;101093.88;;;20.48;69.40
56070;BME280;41944;52.078;-0.058;2023-07-08T00:57:43;101095.98;;;20.40;69.89
56070;BME280;41944;52.078;-0.058;2023-07-08T01:00:15;101094.55;;;20.52;69.51
56070;BME280;41944;52.078;-0.058;2023-07-08T01:02:46;101093.15;;;20.34;70.37
56070;BME280;41944;52.078;-0.058;2023-07-08T01:05:18;101089.68;;;20.26;70.76
56070;BME280;41944;52.078;-0.058;2023-07-08T01:07:50;101089.49;;;20.12;71.54
56070;BME280;41944;52.078;-0.058;2023-07-08T01:10:22;101089.60;;;20.19;71.41
56070;BME280;41944;52.078;-0.058;2023-07-08T01:12:55;101093.61;;;20.16;71.61
56070;BME280;41944;52.078;-0.058;2023-07-08T01:15:31;101096.94;;;20.00;72.44
56070;BME280;41944;52.078;-0.058;2023-07-08T01:17:59;101094.02;;;20.03;72.34
56070;BME280;41944;52.078;-0.058;2023-07-08T01:20:26;101094.20;;;19.99;72.58
56070;BME280;41944;52.078;-0.058;2023-07-08T01:22:53;101091.12;;;20.08;72.18
56070;BME280;41944;52.078;-0.058;2023-07-08T01:25:21;101091.94;;;19.93;72.92
56070;BME280;41944;52.078;-0.058;2023-07-08T01:27:51;101090.71;;;20.06;72.43
56070;BME280;41944;52.078;-0.058;2023-07-08T01:30:19;101083.30;;;20.00;72.79
56070;BME280;41944;52.078;-0.058;2023-07-08T01:32:48;101084.02;;;20.00;72.90
56070;BME280;41944;52.078;-0.058;2023-07-08T01:35:17;101079.89;;;19.87;73.59
56070;BME280;41944;52.078;-0.058;2023-07-08T01:37:48;101077.67;;;19.95;73.29
56070;BME280;41944;52.078;-0.058;2023-07-08T01:40:24;101078.82;;;19.92;73.52
56070;BME280;41944;52.078;-0.058;2023-07-08T01:42:52;101079.14;;;20.00;73.23
56070;BME280;41944;52.078;-0.058;2023-07-08T01:45:23;101079.65;;;19.89;73.71
56070;BME280;41944;52.078;-0.058;2023-07-08T01:47:52;101077.58;;;19.90;73.82
56070;BME280;41944;52.078;-0.058;2023-07-08T01:50:22;101078.11;;;19.84;74.21
56070;BME280;41944;52.078;-0.058;2023-07-08T01:52:51;101075.89;;;19.79;74.56
56070;BME280;41944;52.078;-0.058;2023-07-08T01:55:21;101074.71;;;19.79;74.72
56070;BME280;41944;52.078;-0.058;2023-07-08T01:57:51;101074.15;;;20.00;73.82
56070;BME280;41944;52.078;-0.058;2023-07-08T02:00:19;101071.24;;;20.08;73.60
56070;BME280;41944;52.078;-0.058;2023-07-08T02:02:46;101065.37;;;20.00;74.05
56070;BME280;41944;52.078;-0.058;2023-07-08T02:05:13;101056.42;;;19.99;74.10
56070;BME280;41944;52.078;-0.058;2023-07-08T02:07:40;101057.47;;;19.97;74.34
56070;BME280;41944;52.078;-0.058;2023-07-08T02:10:08;101057.38;;;19.90;74.63
56070;BME280;41944;52.078;-0.058;2023-07-08T02:12:35;101055.18;;;19.89;74.68
56070;BME280;41944;52.078;-0.058;2023-07-08T02:15:02;101053.15;;;19.95;74.54
56070;BME280;41944;52.078;-0.058;2023-07-08T02:17:30;101052.23;;;20.07;73.89
56070;BME280;41944;52.078;-0.058;2023-07-08T02:19:56;101050.89;;;20.05;73.94
56070;BME280;41944;52.078;-0.058;2023-07-08T02:22:24;101045.57;;;20.08;73.85
56070;BME280;41944;52.078;-0.058;2023-07-08T02:24:51;101040.60;;;20.08;73.78
56070;BME280;41944;52.078;-0.058;2023-07-08T02:27:19;101039.23;;;20.02;73.99
56070;BME280;41944;52.078;-0.058;2023-07-08T02:29:46;101033.03;;;20.01;73.99
56070;BME280;41944;52.078;-0.058;2023-07-08T02:32:13;101026.57;;;20.09;73.57
56070;BME280;41944;52.078;-0.058;2023-07-08T02:34:39;101024.65;;;20.09;73.57
56070;BME280;41944;52.078;-0.058;2023-07-08T02:37:07;101021.99;;;20.16;73.23
56070;BME280;41944;52.078;-0.058;2023-07-08T02:39:34;101019.95;;;20.07;73.50
56070;BME280;41944;52.078;-0.058;2023-07-08T02:42:01;101019.31;;;20.06;73.61
56070;BME280;41944;52.078;-0.058;2023-07-08T02:44:28;101020.20;;;20.02;73.51
56070;BME280;41944;52.078;-0.058;2023-07-08T02:46:55;101020.04;;;20.01;73.48
56070;BME280;41944;52.078;-0.058;2023-07-08T02:49:23;101014.63;;;19.91;73.62
56070;BME280;41944;52.078;-0.058;2023-07-08T02:51:49;101012.35;;;19.76;74.31
56070;BME280;41944;52.078;-0.058;2023-07-08T02:54:16;101007.93;;;19.68;74.53
56070;BME280;41944;52.078;-0.058;2023-07-08T02:56:43;101008.85;;;19.67;74.64
56070;BME280;41944;52.078;-0.058;2023-07-08T02:59:10;101008.65;;;19.56;74.94
56070;BME280;41944;52.078;-0.058;2023-07-08T03:01:36;101014.50;;;19.40;75.58
56070;BME280;41944;52.078;-0.058;2023-07-08T03:04:03;101014.49;;;19.47;75.28
56070;BME280;41944;52.078;-0.058;2023-07-08T03:06:31;101019.20;;;19.40;75.73
56070;BME280;41944;52.078;-0.058;2023-07-08T03:08:58;101021.18;;;19.40;75.73
56070;BME280;41944;52.078;-0.058;2023-07-08T03:11:25;101025.83;;;19.42;75.61
56070;BME280;41944;52.078;-0.058;2023-07-08T03:13:52;101027.66;;;19.58;74.60
56070;BME280;41944;52.078;-0.058;2023-07-08T03:16:19;101027.65;;;19.47;75.24
56070;BME280;41944;52.078;-0.058;2023-07-08T03:18:46;101024.85;;;19.69;73.81
56070;BME280;41944;52.078;-0.058;2023-07-08T03:21:15;101019.48;;;19.74;73.42
56070;BME280;41944;52.078;-0.058;2023-07-08T03:23:42;101017.45;;;19.96;72.24
56070;BME280;41944;52.078;-0.058;2023-07-08T03:26:13;101021.48;;;20.17;71.04
56070;BME280;41944;52.078;-0.058;2023-07-08T03:28:41;101026.07;;;20.28;70.64
56070;BME280;41944;52.078;-0.058;2023-07-08T03:31:10;101029.78;;;20.58;69.22
56070;BME280;41944;52.078;-0.058;2023-07-08T03:33:36;101030.20;;;20.76;68.29
56070;BME280;41944;52.078;-0.058;2023-07-08T03:36:09;101028.23;;;20.77;67.95
56070;BME280;41944;52.078;-0.058;2023-07-08T03:38:36;101029.13;;;20.90;67.37
56070;BME280;41944;52.078;-0.058;2023-07-08T03:41:03;101031.14;;;20.97;66.94
56070;BME280;41944;52.078;-0.058;2023-07-08T03:43:30;101030.66;;;21.11;66.54
56070;BME280;41944;52.078;-0.058;2023-07-08T03:45:57;101032.85;;;21.14;66.36
56070;BME280;41944;52.078;-0.058;2023-07-08T03:48:24;101031.34;;;21.20;65.87
56070;BME280;41944;52.078;-0.058;2023-07-08T03:50:51;101032.28;;;21.27;65.62
56070;BME280;41944;52.078;-0.058;2023-07-08T03:53:18;101030.73;;;21.29;65.52
56070;BME280;41944;52.078;-0.058;2023-07-08T03:55:45;101027.75;;;21.28;65.46
56070;BME280;41944;52.078;-0.058;2023-07-08T03:58:12;101036.92;;;21.35;65.27
56070;BME280;41944;52.078;-0.058;2023-07-08T04:00:39;101041.68;;;21.45;65.26
56070;BME280;41944;52.078;-0.058;2023-07-08T04:03:06;101047.77;;;21.44;65.03
56070;BME280;41944;52.078;-0.058;2023-07-08T04:05:34;101055.15;;;21.44;65.42
56070;BME280;41944;52.078;-0.058;2023-07-08T04:08:01;101063.44;;;21.37;65.43
56070;BME280;41944;52.078;-0.058;2023-07-08T04:10:28;101067.73;;;21.27;66.41
56070;BME280;41944;52.078;-0.058;2023-07-08T04:12:55;101074.25;;;21.28;67.02
56070;BME280;41944;52.078;-0.058;2023-07-08T04:15:23;101068.92;;;21.40;66.98
56070;BME280;41944;52.078;-0.058;2023-07-08T04:17:51;101067.21;;;21.29;67.66
56070;BME280;41944;52.078;-0.058;2023-07-08T04:20:19;101073.75;;;21.06;68.53
56070;BME280;41944;52.078;-0.058;2023-07-08T04:22:47;101076.04;;;21.05;68.83
56070;BME280;41944;52.078;-0.058;2023-07-08T04:25:14;101073.79;;;20.82;70.20
56070;BME280;41944;52.078;-0.058;2023-07-08T04:27:42;101072.25;;;20.82;70.68
56070;BME280;41944;52.078;-0.058;2023-07-08T04:30:20;101071.08;;;20.86;70.88
56070;BME280;41944;52.078;-0.058;2023-07-08T04:32:50;101075.45;;;20.88;70.11
56070;BME280;41944;52.078;-0.058;2023-07-08T04:35:16;101073.06;;;20.99;70.27
56070;BME280;41944;52.078;-0.058;2023-07-08T04:37:44;101071.16;;;20.77;71.94
56070;BME280;41944;52.078;-0.058;2023-07-08T04:40:16;101064.85;;;20.84;71.31
56070;BME280;41944;52.078;-0.058;2023-07-08T04:42:44;101054.50;;;20.84;71.59
56070;BME280;41944;52.078;-0.058;2023-07-08T04:45:10;101055.18;;;20.77;71.91
56070;BME280;41944;52.078;-0.058;2023-07-08T04:47:37;101056.01;;;20.76;71.86
56070;BME280;41944;52.078;-0.058;2023-07-08T04:50:05;101053.55;;;20.75;71.83
56070;BME280;41944;52.078;-0.058;2023-07-08T04:52:32;101051.89;;;20.84;71.21
56070;BME280;41944;52.078;-0.058;2023-07-08T04:54:59;101055.14;;;20.67;71.33
56070;BME280;41944;52.078;-0.058;2023-07-08T04:57:26;101058.59;;;20.67;71.71
56070;BME280;41944;52.078;-0.058;2023-07-08T04:59:53;101063.51;;;20.79;71.22
56070;BME280;41944;52.078;-0.058;2023-07-08T05:02:20;101060.91;;;20.84;70.93
56070;BME280;41944;52.078;-0.058;2023-07-08T05:04:47;101054.01;;;20.87;70.68
56070;BME280;41944;52.078;-0.058;2023-07-08T05:07:14;101051.89;;;20.82;70.67
56070;BME280;41944;52.078;-0.058;2023-07-08T05:09:41;101052.90;;;21.08;69.65
56070;BME280;41944;52.078;-0.058;2023-07-08T05:12:07;101046.71;;;21.09;69.96
56070;BME280;41944;52.078;-0.058;2023-07-08T05:14:34;101040.06;;;21.16;69.59
56070;BME280;41944;52.078;-0.058;2023-07-08T05:17:01;101036.97;;;21.32;69.23
56070;BME280;41944;52.078;-0.058;2023-07-08T05:19:28;101032.59;;;21.34;69.79
56070;BME280;41944;52.078;-0.058;2023-07-08T05:21:55;101035.00;;;21.53;69.31
56070;BME280;41944;52.078;-0.058;2023-07-08T05:24:23;101034.76;;;21.57;69.37
56070;BME280;41944;52.078;-0.058;2023-07-08T05:26:50;101031.24;;;21.59;69.66
56070;BME280;41944;52.078;-0.058;2023-07-08T05:29:17;101028.30;;;21.65;69.79
56070;BME280;41944;52.078;-0.058;2023-07-08T05:31:45;101031.34;;;21.65;69.71
56070;BME280;41944;52.078;-0.058;2023-07-08T05:34:11;101032.90;;;21.73;69.32
56070;BME280;41944;52.078;-0.058;2023-07-08T05:36:38;101027.39;;;21.90;69.37
56070;BME280;41944;52.078;-0.058;2023-07-08T05:39:05;101034.70;;;21.75;70.57
56070;BME280;41944;52.078;-0.058;2023-07-08T05:41:32;101032.41;;;21.96;69.62
56070;BME280;41944;52.078;-0.058;2023-07-08T05:43:59;101035.24;;;21.84;70.37
56070;BME280;41944;52.078;-0.058;2023-07-08T05:46:27;101037.10;;;21.82;70.94
56070;BME280;41944;52.078;-0.058;2023-07-08T05:48:54;101039.85;;;21.93;71.01
56070;BME280;41944;52.078;-0.058;2023-07-08T05:51:21;101034.88;;;22.13;70.75
56070;BME280;41944;52.078;-0.058;2023-07-08T05:53:48;101036.80;;;22.14;71.34
56070;BME280;41944;52.078;-0.058;2023-07-08T05:56:15;101031.64;;;22.24;69.64
56070;BME280;41944;52.078;-0.058;2023-07-08T05:58:41;101035.20;;;22.38;68.86
56070;BME280;41944;52.078;-0.058;2023-07-08T06:01:08;101032.36;;;22.60;67.19
56070;BME280;41944;52.078;-0.058;2023-07-08T06:03:37;101032.50;;;22.75;66.85
56070;BME280;41944;52.078;-0.058;2023-07-08T06:06:04;101030.78;;;22.79;66.53
56070;BME280;41944;52.078;-0.058;2023-07-08T06:08:31;101031.69;;;23.04;65.44
56070;BME280;41944;52.078;-0.058;2023-07-08T06:10:59;101031.04;;;23.13;65.29
56070;BME280;41944;52.078;-0.058;2023-07-08T06:13:26;101028.60;;;23.13;65.21
56070;BME280;41944;52.078;-0.058;2023-07-08T06:15:53;101024.57;;;23.19;65.00
56070;BME280;41944;52.078;-0.058;2023-07-08T06:18:19;101030.34;;;23.40;64.47
56070;BME280;41944;52.078;-0.058;2023-07-08T06:20:52;101033.89;;;23.64;63.05
56070;BME280;41944;52.078;-0.058;2023-07-08T06:23:19;101028.38;;;23.58;62.94
56070;BME280;41944;52.078;-0.058;2023-07-08T06:25:46;101028.63;;;23.62;63.69
56070;BME280;41944;52.078;-0.058;2023-07-08T06:28:13;101026.75;;;23.72;63.66
56070;BME280;41944;52.078;-0.058;2023-07-08T06:30:41;101033.32;;;23.89;63.15
56070;BME280;41944;52.078;-0.058;2023-07-08T06:33:08;101041.51;;;23.88;62.95
56070;BME280;41944;52.078;-0.058;2023-07-08T06:35:35;101039.32;;;24.08;62.42
56070;BME280;41944;52.078;-0.058;2023-07-08T06:38:01;101042.43;;;24.04;63.97
56070;BME280;41944;52.078;-0.058;2023-07-08T06:40:28;101041.46;;;24.24;61.98
56070;BME280;41944;52.078;-0.058;2023-07-08T06:42:55;101043.58;;;24.40;61.91
56070;BME280;41944;52.078;-0.058;2023-07-08T06:45:23;101048.99;;;24.33;62.56
56070;BME280;41944;52.078;-0.058;2023-07-08T06:47:50;101055.11;;;24.55;60.78
56070;BME280;41944;52.078;-0.058;2023-07-08T06:50:17;101063.72;;;24.56;61.74
56070;BME280;41944;52.078;-0.058;2023-07-08T06:52:44;101067.86;;;24.73;60.77
56070;BME280;41944;52.078;-0.058;2023-07-08T06:55:11;101066.41;;;24.78;61.23
56070;BME280;41944;52.078;-0.058;2023-07-08T06:57:38;101059.41;;;24.88;60.57
56070;BME280;41944;52.078;-0.058;2023-07-08T07:00:07;101061.13;;;24.95;59.96
56070;BME280;41944;52.078;-0.058;2023-07-08T07:02:33;101062.24;;;25.05;59.45
56070;BME280;41944;52.078;-0.058;2023-07-08T07:05:01;101058.50;;;24.99;60.59
56070;BME280;41944;52.078;-0.058;2023-07-08T07:07:28;101061.46;;;25.16;59.89
56070;BME280;41944;52.078;-0.058;2023-07-08T07:09:55;101069.17;;;25.26;59.73
56070;BME280;41944;52.078;-0.058;2023-07-08T07:12:24;101072.80;;;25.31;59.28
56070;BME280;41944;52.078;-0.058;2023-07-08T07:14:51;101075.10;;;25.21;60.69
56070;BME280;41944;52.078;-0.058;2023-07-08T07:17:19;101081.11;;;25.36;60.55
56070;BME280;41944;52.078;-0.058;2023-07-08T07:19:47;101079.22;;;25.58;59.73
56070;BME280;41944;52.078;-0.058;2023-07-08T07:22:14;101083.76;;;25.75;58.74
56070;BME280;41944;52.078;-0.058;2023-07-08T07:24:41;101091.96;;;25.83;59.34
56070;BME280;41944;52.078;-0.058;2023-07-08T07:27:09;101102.02;;;25.91;57.48
56070;BME280;41944;52.078;-0.058;2023-07-08T07:29:42;101106.32;;;25.97;58.17
56070;BME280;41944;52.078;-0.058;2023-07-08T07:32:10;101102.64;;;26.03;58.58
56070;BME280;41944;52.078;-0.058;2023-07-08T07:34:37;101102.58;;;26.15;57.27
56070;BME280;41944;52.078;-0.058;2023-07-08T07:37:05;101102.35;;;26.12;57.27
56070;BME280;41944;52.078;-0.058;2023-07-08T07:39:32;101114.70;;;25.99;58.64
56070;BME280;41944;52.078;-0.058;2023-07-08T07:41:59;101122.83;;;26.03;57.78
56070;BME280;41944;52.078;-0.058;2023-07-08T07:44:26;101123.89;;;26.06;57.93
56070;BME280;41944;52.078;-0.058;2023-07-08T07:46:54;101116.69;;;25.98;59.20
56070;BME280;41944;52.078;-0.058;2023-07-08T07:49:21;101122.73;;;25.95;57.55
56070;BME280;41944;52.078;-0.058;2023-07-08T07:51:48;101124.42;;;25.76;61.00
56070;BME280;41944;52.078;-0.058;2023-07-08T07:54:15;101122.08;;;25.77;60.82
56070;BME280;41944;52.078;-0.058;2023-07-08T07:56:42;101120.98;;;25.84;59.63
56070;BME280;41944;52.078;-0.058;2023-07-08T07:59:10;101118.81;;;25.92;59.73
56070;BME280;41944;52.078;-0.058;2023-07-08T08:01:37;101118.15;;;26.13;58.85
56070;BME280;41944;52.078;-0.058;2023-07-08T08:04:05;101114.73;;;26.31;57.35
56070;BME280;41944;52.078;-0.058;2023-07-08T08:06:32;101123.45;;;26.39;56.80
56070;BME280;41944;52.078;-0.058;2023-07-08T08:08:58;101130.71;;;26.44;59.47
56070;BME280;41944;52.078;-0.058;2023-07-08T08:11:26;101125.32;;;26.57;60.20
56070;BME280;41944;52.078;-0.058;2023-07-08T08:13:53;101128.18;;;26.80;57.75
56070;BME280;41944;52.078;-0.058;2023-07-08T08:16:21;101131.34;;;26.93;58.55
56070;BME280;41944;52.078;-0.058;2023-07-08T08:18:48;101139.29;;;27.02;57.97
56070;BME280;41944;52.078;-0.058;2023-07-08T08:21:16;101139.03;;;27.13;57.04
56070;BME280;41944;52.078;-0.058;2023-07-08T08:23:43;101140.39;;;27.20;57.75
56070;BME280;41944;52.078;-0.058;2023-07-08T08:26:10;101148.57;;;27.23;55.10
56070;BME280;41944;52.078;-0.058;2023-07-08T08:28:37;101156.69;;;27.29;56.17
56070;BME280;41944;52.078;-0.058;2023-07-08T08:31:04;101150.88;;;27.32;54.27
56070;BME280;41944;52.078;-0.058;2023-07-08T08:33:31;101153.96;;;27.30;56.20
56070;BME280;41944;52.078;-0.058;2023-07-08T08:35:58;101160.96;;;27.32;56.61
56070;BME280;41944;52.078;-0.058;2023-07-08T08:38:26;101162.50;;;27.43;55.53
56070;BME280;41944;52.078;-0.058;2023-07-08T08:40:53;101171.57;;;27.47;56.40
56070;BME280;41944;52.078;-0.058;2023-07-08T08:43:25;101170.11;;;27.60;54.82
56070;BME280;41944;52.078;-0.058;2023-07-08T08:46:02;101171.03;;;27.70;55.05
56070;BME280;41944;52.078;-0.058;2023-07-08T08:48:40;101171.78;;;27.71;55.11
56070;BME280;41944;52.078;-0.058;2023-07-08T08:51:13;101174.09;;;27.71;54.64
56070;BME280;41944;52.078;-0.058;2023-07-08T08:53:41;101181.32;;;27.85;55.44
56070;BME280;41944;52.078;-0.058;2023-07-08T08:56:16;101184.67;;;27.78;55.54
56070;BME280;41944;52.078;-0.058;2023-07-08T08:58:51;101183.24;;;27.77;54.94
56070;BME280;41944;52.078;-0.058;2023-07-08T09:01:22;101184.52;;;27.77;55.57
56070;BME280;41944;52.078;-0.058;2023-07-08T09:03:52;101192.00;;;27.76;55.87
56070;BME280;41944;52.078;-0.058;2023-07-08T09:06:24;101200.49;;;27.80;56.51
56070;BME280;41944;52.078;-0.058;2023-07-08T09:08:52;101212.56;;;27.87;56.33
56070;BME280;41944;52.078;-0.058;2023-07-08T09:11:36;101219.05;;;27.97;55.11
56070;BME280;41944;52.078;-0.058;2023-07-08T09:14:06;101230.41;;;27.91;56.18
56070;BME280;41944;52.078;-0.058;2023-07-08T09:16:45;101236.44;;;27.84;55.77
56070;BME280;41944;52.078;-0.058;2023-07-08T09:19:22;101240.99;;;27.83;57.08
56070;BME280;41944;52.078;-0.058;2023-07-08T09:21:55;101242.65;;;27.68;57.37
56070;BME280;41944;52.078;-0.058;2023-07-08T09:24:31;101244.77;;;27.72;58.04
56070;BME280;41944;52.078;-0.058;2023-07-08T09:27:01;101248.56;;;27.70;59.80
56070;BME280;41944;52.078;-0.058;2023-07-08T09:29:27;101257.65;;;27.59;63.67
56070;BME280;41944;52.078;-0.058;2023-07-08T09:31:55;101263.85;;;27.35;66.14
56070;BME280;41944;52.078;-0.058;2023-07-08T09:34:23;101258.34;;;27.09;67.81
56070;BME280;41944;52.078;-0.058;2023-07-08T09:37:02;101254.63;;;26.99;69.54
56070;BME280;41944;52.078;-0.058;2023-07-08T09:39:29;101257.22;;;26.85;75.19
56070;BME280;41944;52.078;-0.058;2023-07-08T09:41:56;101253.14;;;26.96;73.00
56070;BME280;41944;52.078;-0.058;2023-07-08T09:44:25;101250.28;;;27.03;70.68
56070;BME280;41944;52.078;-0.058;2023-07-08T09:46:53;101253.87;;;27.25;73.11
56070;BME280;41944;52.078;-0.058;2023-07-08T09:49:24;101259.12;;;27.41;70.78
56070;BME280;41944;52.078;-0.058;2023-07-08T09:51:52;101253.87;;;27.64;69.77
56070;BME280;41944;52.078;-0.058;2023-07-08T09:54:21;101252.90;;;27.85;67.20
56070;BME280;41944;52.078;-0.058;2023-07-08T09:56:55;101253.25;;;28.01;62.04
56070;BME280;41944;52.078;-0.058;2023-07-08T09:59:28;101252.17;;;28.16;60.61
56070;BME280;41944;52.078;-0.058;2023-07-08T10:01:56;101254.97;;;28.18;62.23
56070;BME280;41944;52.078;-0.058;2023-07-08T10:04:26;101250.18;;;28.33;60.21
56070;BME280;41944;52.078;-0.058;2023-07-08T10:06:54;101260.57;;;28.21;62.87
56070;BME280;41944;52.078;-0.058;2023-07-08T10:09:25;101261.19;;;28.36;61.39
56070;BME280;41944;52.078;-0.058;2023-07-08T10:11:57;101267.79;;;28.47;59.19
56070;BME280;41944;52.078;-0.058;2023-07-08T10:14:30;101271.58;;;28.41;60.81
56070;BME280;41944;52.078;-0.058;2023-07-08T10:16:59;101274.62;;;28.48;58.45
56070;BME280;41944;52.078;-0.058;2023-07-08T10:19:26;101275.56;;;28.61;54.34
56070;BME280;41944;52.078;-0.058;2023-07-08T10:22:03;101278.27;;;28.34;58.67
56070;BME280;41944;52.078;-0.058;2023-07-08T10:24:45;101279.68;;;28.46;53.36
56070;BME280;41944;52.078;-0.058;2023-07-08T10:27:24;101284.38;;;28.68;53.08
56070;BME280;41944;52.078;-0.058;2023-07-08T10:29:58;101281.01;;;28.84;54.30
56070;BME280;41944;52.078;-0.058;2023-07-08T10:32:40;101277.09;;;28.78;50.79
56070;BME280;41944;52.078;-0.058;2023-07-08T10:35:13;101284.82;;;28.77;52.08
56070;BME280;41944;52.078;-0.058;2023-07-08T10:37:50;101288.14;;;28.75;51.47
56070;BME280;41944;52.078;-0.058;2023-07-08T10:40:32;101297.19;;;28.92;49.60
56070;BME280;41944;52.078;-0.058;2023-07-08T10:43:15;101302.17;;;29.05;49.35
56070;BME280;41944;52.078;-0.058;2023-07-08T10:45:51;101300.41;;;29.07;48.43
56070;BME280;41944;52.078;-0.058;2023-07-08T10:48:32;101299.97;;;28.95;47.55
56070;BME280;41944;52.078;-0.058;2023-07-08T10:51:12;101307.89;;;29.00;49.31
56070;BME280;41944;52.078;-0.058;2023-07-08T10:53:57;101317.79;;;29.09;47.73
56070;BME280;41944;52.078;-0.058;2023-07-08T10:56:34;101321.07;;;28.85;48.69
56070;BME280;41944;52.078;-0.058;2023-07-08T10:59:20;101327.01;;;28.95;50.02
56070;BME280;41944;52.078;-0.058;2023-07-08T11:02:12;101336.56;;;28.94;49.03
56070;BME280;41944;52.078;-0.058;2023-07-08T11:04:52;101335.58;;;29.03;48.63
56070;BME280;41944;52.078;-0.058;2023-07-08T11:07:32;101333.65;;;29.07;48.45
56070;BME280;41944;52.078;-0.058;2023-07-08T11:10:06;101324.16;;;29.25;47.96
56070;BME280;41944;52.078;-0.058;2023-07-08T11:12:38;101329.56;;;29.36;48.46
56070;BME280;41944;52.078;-0.058;2023-07-08T11:15:15;101332.58;;;29.38;46.80
56070;BME280;41944;52.078;-0.058;2023-07-08T11:17:48;101333.88;;;29.30;49.03
56070;BME280;41944;52.078;-0.058;2023-07-08T11:20:23;101341.91;;;29.47;46.82
56070;BME280;41944;52.078;-0.058;2023-07-08T11:22:56;101356.47;;;29.34;48.20
56070;BME280;41944;52.078;-0.058;2023-07-08T11:25:27;101367.30;;;29.31;47.71
56070;BME280;41944;52.078;-0.058;2023-07-08T11:27:57;101385.54;;;29.37;47.75
56070;BME280;41944;52.078;-0.058;2023-07-08T11:30:29;101398.88;;;29.35;47.56
56070;BME280;41944;52.078;-0.058;2023-07-08T11:33:00;101404.64;;;29.27;47.67
56070;BME280;41944;52.078;-0.058;2023-07-08T11:35:36;101408.68;;;29.09;49.04
56070;BME280;41944;52.078;-0.058;2023-07-08T11:38:05;101412.69;;;28.94;49.25
56070;BME280;41944;52.078;-0.058;2023-07-08T11:40:48;101407.51;;;28.72;49.74
56070;BME280;41944;52.078;-0.058;2023-07-08T11:43:16;101407.02;;;28.41;50.57
56070;BME280;41944;52.078;-0.058;2023-07-08T11:45:44;101408.09;;;28.43;51.13
56070;BME280;41944;52.078;-0.058;2023-07-08T11:48:13;101422.00;;;28.22;51.48
56070;BME280;41944;52.078;-0.058;2023-07-08T11:50:41;101413.84;;;28.30;51.52
56070;BME280;41944;52.078;-0.058;2023-07-08T11:53:14;101401.78;;;28.11;53.16
56070;BME280;41944;52.078;-0.058;2023-07-08T11:55:59;101388.46;;;28.10;53.67
56070;BME280;41944;52.078;-0.058;2023-07-08T11:58:28;101383.21;;;28.21;52.89
56070;BME280;41944;52.078;-0.058;2023-07-08T12:00:59;101375.18;;;28.23;52.41
56070;BME280;41944;52.078;-0.058;2023-07-08T12:03:35;101369.43;;;28.26;53.13
56070;BME280;41944;52.078;-0.058;2023-07-08T12:06:42;101357.56;;;28.14;53.92
56070;BME280;41944;52.078;-0.058;2023-07-08T12:09:15;101350.94;;;28.27;52.72
56070;BME280;41944;52.078;-0.058;2023-07-08T12:11:48;101357.38;;;27.98;53.24
56070;BME280;41944;52.078;-0.058;2023-07-08T12:14:15;101369.65;;;27.69;55.08
56070;BME280;41944;52.078;-0.058;2023-07-08T12:16:42;101363.95;;;27.69;55.10
56070;BME280;41944;52.078;-0.058;2023-07-08T12:19:13;101357.38;;;27.61;55.64
56070;BME280;41944;52.078;-0.058;2023-07-08T12:21:42;101352.19;;;27.36;58.04
56070;BME280;41944;52.078;-0.058;2023-07-08T12:24:12;101361.78;;;27.16;60.91
56070;BME280;41944;52.078;-0.058;2023-07-08T12:26:40;101371.77;;;27.09;59.31
56070;BME280;41944;52.078;-0.058;2023-07-08T12:29:10;101362.14;;;26.75;61.29
56070;BME280;41944;52.078;-0.058;2023-07-08T12:31:38;101373.57;;;26.82;65.53
56070;BME280;41944;52.078;-0.058;2023-07-08T12:34:12;101363.26;;;26.74;62.03
56070;BME280;41944;52.078;-0.058;2023-07-08T12:36:39;101357.54;;;26.90;63.06
56070;BME280;41944;52.078;-0.058;2023-07-08T12:39:09;101349.68;;;27.13;59.72
56070;BME280;41944;52.078;-0.058;2023-07-08T12:41:38;101332.45;;;27.21;60.98
56070;BME280;41944;52.078;-0.058;2023-07-08T12:44:15;101333.25;;;26.92;61.64
56070;BME280;41944;52.078;-0.058;2023-07-08T12:46:42;101339.80;;;26.89;59.70
56070;BME280;41944;52.078;-0.058;2023-07-08T12:49:09;101338.76;;;26.96;58.10
56070;BME280;41944;52.078;-0.058;2023-07-08T12:51:36;101341.75;;;26.93;57.18